North Kingstown, RI (02852)

12:42 AM EDT die 24o August, anno 2017 (GMT -0400)
Stone Gate | | Change Station

Elev 110 ft 41.57 °N, 71.47 °W | Updated 27 seconds ago

Serena
Serena
58.5 °F
Feels Like 58.5 °F
N
0.0
Ventus Variabilis Ventus from Inter Austrum et Zephyrum
Gusts 0.0 mph

Hodie
High -- | Low -- °F
--% Chance of Precip.
Yesterday
High -- | Low -- °F
Precip. -- in
Pressio 29.86 in
Visibilitas 10.0 milia passuum
Clouds Serena
Frigus in quo Ros apparet 56 °F
Umor 93%
Rainfall 0.00 in
Snow Depth Not available.
6:03 AM 7:31 PM
Waxing Crescent, 7% visible
METAR KPVD 240351Z 26004KT 10SM CLR 18/14 A2986 RMK AO2 SLP112 LAST T01780144
Pressio 29.86 in
Visibilitas 10.0 milia passuum
Clouds Serena
Frigus in quo Ros apparet 56 °F
Umor 93%
Rainfall 0.00 in
Snow Depth Not available.
6:03 AM 7:31 PM
Waxing Crescent, 7% visible
METAR KPVD 240351Z 26004KT 10SM CLR 18/14 A2986 RMK AO2 SLP112 LAST T01780144

Get Severe Weather Alerts

Thanks for signing up!

Be on the lookout for a verification email in your inbox.

You'll start receiving the daily forecast at 6 AM.

×

10-Day Weather Forecast

Almanac

Astronomy

Aug. 24, 2017 Rise Set
Actual Time
Civil Twilight
Nautical Twilight
Astronomical Twilight
Moon
Length Of Visible Light
Length of Day
Tomorrow will be .
, % of the Moon is Illuminated

Today's Extremes

State Highs State Lows

Community

WunderPhotos

Category 6

Welcome to Category 6. This is the collective home for Weather Underground's featured writeups by Dr. Jeff Masters (right), Bob Henson (left), Chris Burt, and other regular contributors.

Nearby

Air Quality

  Air Quality AQ Index Pollutant
Not available.

Snow Depth

Station Depth Elevation

Earthquake Activity

City Distance Mag. Time & Date
Minimum magnitude displayed is 2.5.

Coastal Water Temperatures

Locus Calor

Stations

Nearby Weather Stations

Station Location Temp Frigus Venti Frigus in quo Ros apparet Umor Ventus Precip. Elev Renovata Type
                   

Watches & Warnings

There are currently no watches in effect.